sensor_id;sensor_type;location;lat;lon;timestamp;P1;durP1;ratioP1;P2;durP2;ratioP2
22282;SDS011;11310;51.528;21.204;2022-11-15T00:02:42;26.67;;;13.48;;
22282;SDS011;11310;51.528;21.204;2022-11-15T00:05:33;25.23;;;12.85;;
22282;SDS011;11310;51.528;21.204;2022-11-15T00:08:21;28.70;;;13.18;;
22282;SDS011;11310;51.528;21.204;2022-11-15T00:11:10;23.70;;;11.45;;
22282;SDS011;11310;51.528;21.204;2022-11-15T00:13:59;26.98;;;12.10;;
22282;SDS011;11310;51.528;21.204;2022-11-15T00:16:49;31.23;;;13.30;;
22282;SDS011;11310;51.528;21.204;2022-11-15T00:19:36;27.67;;;13.35;;
22282;SDS011;11310;51.528;21.204;2022-11-15T00:22:23;27.65;;;13.05;;
22282;SDS011;11310;51.528;21.204;2022-11-15T00:25:10;28.58;;;13.13;;
22282;SDS011;11310;51.528;21.204;2022-11-15T00:27:59;25.60;;;12.40;;
22282;SDS011;11310;51.528;21.204;2022-11-15T00:30:47;26.25;;;11.68;;
22282;SDS011;11310;51.528;21.204;2022-11-15T00:33:34;28.75;;;13.20;;
22282;SDS011;11310;51.528;21.204;2022-11-15T00:36:21;25.67;;;11.70;;
22282;SDS011;11310;51.528;21.204;2022-11-15T00:39:09;26.55;;;12.38;;
22282;SDS011;11310;51.528;21.204;2022-11-15T00:41:57;26.42;;;12.05;;
22282;SDS011;11310;51.528;21.204;2022-11-15T00:44:46;24.55;;;11.75;;
22282;SDS011;11310;51.528;21.204;2022-11-15T00:47:33;24.30;;;11.55;;
22282;SDS011;11310;51.528;21.204;2022-11-15T00:50:20;23.73;;;11.80;;
22282;SDS011;11310;51.528;21.204;2022-11-15T00:53:07;26.67;;;12.50;;
22282;SDS011;11310;51.528;21.204;2022-11-15T00:55:54;24.65;;;12.23;;
22282;SDS011;11310;51.528;21.204;2022-11-15T00:58:41;28.15;;;12.25;;
22282;SDS011;11310;51.528;21.204;2022-11-15T01:01:30;26.10;;;12.52;;
22282;SDS011;11310;51.528;21.204;2022-11-15T01:04:17;25.45;;;11.70;;
22282;SDS011;11310;51.528;21.204;2022-11-15T01:07:04;27.95;;;12.27;;
22282;SDS011;11310;51.528;21.204;2022-11-15T01:09:52;21.40;;;10.90;;
22282;SDS011;11310;51.528;21.204;2022-11-15T01:12:39;26.67;;;13.10;;
22282;SDS011;11310;51.528;21.204;2022-11-15T01:15:26;27.88;;;12.25;;
22282;SDS011;11310;51.528;21.204;2022-11-15T01:18:14;26.50;;;11.65;;
22282;SDS011;11310;51.528;21.204;2022-11-15T01:21:04;28.02;;;12.77;;
22282;SDS011;11310;51.528;21.204;2022-11-15T01:23:52;28.52;;;12.30;;
22282;SDS011;11310;51.528;21.204;2022-11-15T01:26:40;26.17;;;11.82;;
22282;SDS011;11310;51.528;21.204;2022-11-15T01:29:27;24.10;;;12.10;;
22282;SDS011;11310;51.528;21.204;2022-11-15T01:32:15;27.55;;;12.20;;
22282;SDS011;11310;51.528;21.204;2022-11-15T01:35:04;27.08;;;12.02;;
22282;SDS011;11310;51.528;21.204;2022-11-15T01:37:51;27.48;;;12.30;;
22282;SDS011;11310;51.528;21.204;2022-11-15T01:40:39;28.58;;;12.60;;
22282;SDS011;11310;51.528;21.204;2022-11-15T01:43:29;26.95;;;12.40;;
22282;SDS011;11310;51.528;21.204;2022-11-15T01:46:28;26.40;;;11.98;;
22282;SDS011;11310;51.528;21.204;2022-11-15T01:49:19;28.80;;;11.90;;
22282;SDS011;11310;51.528;21.204;2022-11-15T01:52:10;30.92;;;12.38;;
22282;SDS011;11310;51.528;21.204;2022-11-15T01:55:02;29.38;;;12.05;;
22282;SDS011;11310;51.528;21.204;2022-11-15T01:57:54;25.55;;;11.88;;
22282;SDS011;11310;51.528;21.204;2022-11-15T02:00:43;29.42;;;12.05;;
22282;SDS011;11310;51.528;21.204;2022-11-15T02:03:31;29.35;;;12.85;;
22282;SDS011;11310;51.528;21.204;2022-11-15T02:06:25;25.60;;;11.82;;
22282;SDS011;11310;51.528;21.204;2022-11-15T02:09:16;29.10;;;12.63;;
22282;SDS011;11310;51.528;21.204;2022-11-15T02:12:05;26.45;;;12.25;;
22282;SDS011;11310;51.528;21.204;2022-11-15T02:14:54;26.67;;;12.45;;
22282;SDS011;11310;51.528;21.204;2022-11-15T02:17:48;28.98;;;12.52;;
22282;SDS011;11310;51.528;21.204;2022-11-15T02:20:58;30.60;;;12.52;;
22282;SDS011;11310;51.528;21.204;2022-11-15T02:30:46;37.05;;;13.10;;
22282;SDS011;11310;51.528;21.204;2022-11-15T02:33:41;28.17;;;12.85;;
22282;SDS011;11310;51.528;21.204;2022-11-15T02:36:40;26.42;;;11.75;;
22282;SDS011;11310;51.528;21.204;2022-11-15T02:39:32;27.50;;;11.43;;
22282;SDS011;11310;51.528;21.204;2022-11-15T02:42:25;30.08;;;12.07;;
22282;SDS011;11310;51.528;21.204;2022-11-15T02:45:33;26.13;;;11.77;;
22282;SDS011;11310;51.528;21.204;2022-11-15T02:48:27;26.23;;;11.52;;
22282;SDS011;11310;51.528;21.204;2022-11-15T02:51:16;28.40;;;12.02;;
22282;SDS011;11310;51.528;21.204;2022-11-15T02:54:05;31.35;;;11.95;;
22282;SDS011;11310;51.528;21.204;2022-11-15T02:56:53;28.02;;;12.18;;
22282;SDS011;11310;51.528;21.204;2022-11-15T03:03:04;26.80;;;11.07;;
22282;SDS011;11310;51.528;21.204;2022-11-15T03:06:06;29.48;;;11.25;;
22282;SDS011;11310;51.528;21.204;2022-11-15T03:09:03;26.65;;;11.52;;
22282;SDS011;11310;51.528;21.204;2022-11-15T03:11:56;27.25;;;11.05;;
22282;SDS011;11310;51.528;21.204;2022-11-15T03:14:50;29.02;;;11.38;;
22282;SDS011;11310;51.528;21.204;2022-11-15T03:17:43;27.50;;;11.45;;
22282;SDS011;11310;51.528;21.204;2022-11-15T03:20:35;29.98;;;11.65;;
22282;SDS011;11310;51.528;21.204;2022-11-15T03:23:24;26.15;;;11.00;;
22282;SDS011;11310;51.528;21.204;2022-11-15T03:26:14;28.58;;;11.05;;
22282;SDS011;11310;51.528;21.204;2022-11-15T03:29:06;24.63;;;10.02;;
22282;SDS011;11310;51.528;21.204;2022-11-15T03:31:58;25.05;;;10.43;;
22282;SDS011;11310;51.528;21.204;2022-11-15T03:34:50;27.85;;;11.18;;
22282;SDS011;11310;51.528;21.204;2022-11-15T03:37:41;26.98;;;10.43;;
22282;SDS011;11310;51.528;21.204;2022-11-15T03:40:36;26.58;;;10.52;;
22282;SDS011;11310;51.528;21.204;2022-11-15T03:43:29;24.73;;;10.65;;
22282;SDS011;11310;51.528;21.204;2022-11-15T03:46:22;25.77;;;10.85;;
22282;SDS011;11310;51.528;21.204;2022-11-15T03:49:14;25.70;;;10.13;;
22282;SDS011;11310;51.528;21.204;2022-11-15T03:52:06;24.90;;;10.38;;
22282;SDS011;11310;51.528;21.204;2022-11-15T03:54:55;25.02;;;10.82;;
22282;SDS011;11310;51.528;21.204;2022-11-15T03:57:44;27.17;;;9.77;;
22282;SDS011;11310;51.528;21.204;2022-11-15T04:00:32;22.52;;;9.63;;
22282;SDS011;11310;51.528;21.204;2022-11-15T04:03:20;24.52;;;10.23;;
22282;SDS011;11310;51.528;21.204;2022-11-15T04:06:07;26.67;;;9.75;;
22282;SDS011;11310;51.528;21.204;2022-11-15T04:08:54;24.58;;;9.55;;
22282;SDS011;11310;51.528;21.204;2022-11-15T04:11:41;22.92;;;9.40;;
22282;SDS011;11310;51.528;21.204;2022-11-15T04:14:30;21.48;;;9.13;;
22282;SDS011;11310;51.528;21.204;2022-11-15T04:17:17;23.55;;;8.75;;
22282;SDS011;11310;51.528;21.204;2022-11-15T04:20:05;19.52;;;8.60;;
22282;SDS011;11310;51.528;21.204;2022-11-15T04:23:13;20.35;;;8.45;;
22282;SDS011;11310;51.528;21.204;2022-11-15T04:26:20;18.23;;;8.38;;
22282;SDS011;11310;51.528;21.204;2022-11-15T04:29:09;18.95;;;8.45;;
22282;SDS011;11310;51.528;21.204;2022-11-15T04:32:15;17.83;;;7.57;;
22282;SDS011;11310;51.528;21.204;2022-11-15T04:35:03;18.98;;;8.27;;
22282;SDS011;11310;51.528;21.204;2022-11-15T04:37:51;19.67;;;7.78;;
22282;SDS011;11310;51.528;21.204;2022-11-15T04:40:38;17.13;;;6.97;;
22282;SDS011;11310;51.528;21.204;2022-11-15T04:43:25;16.80;;;7.60;;
22282;SDS011;11310;51.528;21.204;2022-11-15T04:46:13;17.88;;;7.47;;
22282;SDS011;11310;51.528;21.204;2022-11-15T04:49:01;17.73;;;7.63;;
22282;SDS011;11310;51.528;21.204;2022-11-15T04:51:49;18.95;;;8.20;;
22282;SDS011;11310;51.528;21.204;2022-11-15T04:54:36;19.05;;;8.40;;
22282;SDS011;11310;51.528;21.204;2022-11-15T04:57:23;19.58;;;7.82;;
22282;SDS011;11310;51.528;21.204;2022-11-15T05:00:11;18.67;;;7.53;;
22282;SDS011;11310;51.528;21.204;2022-11-15T05:03:01;18.45;;;7.90;;
22282;SDS011;11310;51.528;21.204;2022-11-15T05:06:07;19.38;;;8.07;;
22282;SDS011;11310;51.528;21.204;2022-11-15T05:08:54;19.77;;;8.20;;
22282;SDS011;11310;51.528;21.204;2022-11-15T05:11:42;17.02;;;7.35;;
22282;SDS011;11310;51.528;21.204;2022-11-15T05:14:30;16.27;;;7.47;;
22282;SDS011;11310;51.528;21.204;2022-11-15T05:17:17;18.23;;;7.70;;
22282;SDS011;11310;51.528;21.204;2022-11-15T05:20:05;15.10;;;6.88;;
22282;SDS011;11310;51.528;21.204;2022-11-15T05:22:55;17.70;;;8.30;;
22282;SDS011;11310;51.528;21.204;2022-11-15T05:25:42;18.58;;;8.23;;
22282;SDS011;11310;51.528;21.204;2022-11-15T05:28:30;16.95;;;7.25;;
22282;SDS011;11310;51.528;21.204;2022-11-15T05:31:17;16.92;;;7.00;;
22282;SDS011;11310;51.528;21.204;2022-11-15T05:34:04;14.30;;;6.85;;
22282;SDS011;11310;51.528;21.204;2022-11-15T05:36:52;15.48;;;6.82;;
22282;SDS011;11310;51.528;21.204;2022-11-15T05:39:41;15.07;;;6.82;;
22282;SDS011;11310;51.528;21.204;2022-11-15T05:42:29;15.30;;;7.13;;
22282;SDS011;11310;51.528;21.204;2022-11-15T05:45:17;15.45;;;7.38;;
22282;SDS011;11310;51.528;21.204;2022-11-15T05:48:11;14.18;;;6.07;;
22282;SDS011;11310;51.528;21.204;2022-11-15T05:50:58;14.25;;;6.75;;
22282;SDS011;11310;51.528;21.204;2022-11-15T05:53:47;18.35;;;8.30;;
22282;SDS011;11310;51.528;21.204;2022-11-15T05:56:36;13.98;;;6.80;;
22282;SDS011;11310;51.528;21.204;2022-11-15T05:59:24;17.65;;;7.50;;
22282;SDS011;11310;51.528;21.204;2022-11-15T06:02:11;15.52;;;7.05;;
22282;SDS011;11310;51.528;21.204;2022-11-15T06:04:58;17.30;;;7.30;;
22282;SDS011;11310;51.528;21.204;2022-11-15T06:07:45;17.05;;;7.80;;
22282;SDS011;11310;51.528;21.204;2022-11-15T06:10:33;17.15;;;7.05;;
22282;SDS011;11310;51.528;21.204;2022-11-15T06:13:22;14.27;;;7.28;;
22282;SDS011;11310;51.528;21.204;2022-11-15T06:16:10;17.00;;;7.38;;
22282;SDS011;11310;51.528;21.204;2022-11-15T06:18:58;12.93;;;6.10;;
22282;SDS011;11310;51.528;21.204;2022-11-15T06:21:45;13.98;;;6.38;;
22282;SDS011;11310;51.528;21.204;2022-11-15T06:24:32;14.80;;;6.63;;
22282;SDS011;11310;51.528;21.204;2022-11-15T06:27:20;13.35;;;6.20;;
22282;SDS011;11310;51.528;21.204;2022-11-15T06:30:10;13.40;;;6.50;;
22282;SDS011;11310;51.528;21.204;2022-11-15T06:33:00;17.25;;;8.23;;
22282;SDS011;11310;51.528;21.204;2022-11-15T06:35:49;14.75;;;7.55;;
22282;SDS011;11310;51.528;21.204;2022-11-15T06:38:36;15.50;;;6.80;;
22282;SDS011;11310;51.528;21.204;2022-11-15T06:41:23;16.92;;;7.13;;
22282;SDS011;11310;51.528;21.204;2022-11-15T06:44:11;17.70;;;7.13;;
22282;SDS011;11310;51.528;21.204;2022-11-15T06:47:00;20.13;;;8.13;;
22282;SDS011;11310;51.528;21.204;2022-11-15T06:49:47;18.75;;;7.82;;
22282;SDS011;11310;51.528;21.204;2022-11-15T06:52:34;17.00;;;7.53;;
22282;SDS011;11310;51.528;21.204;2022-11-15T06:55:22;16.75;;;7.40;;
22282;SDS011;11310;51.528;21.204;2022-11-15T06:58:09;14.82;;;7.35;;
22282;SDS011;11310;51.528;21.204;2022-11-15T07:00:59;19.58;;;7.30;;
22282;SDS011;11310;51.528;21.204;2022-11-15T07:03:49;16.45;;;7.47;;
22282;SDS011;11310;51.528;21.204;2022-11-15T07:06:37;18.33;;;7.18;;
22282;SDS011;11310;51.528;21.204;2022-11-15T07:09:25;16.02;;;7.70;;
22282;SDS011;11310;51.528;21.204;2022-11-15T07:12:12;16.70;;;7.32;;
22282;SDS011;11310;51.528;21.204;2022-11-15T07:14:59;13.63;;;6.78;;
22282;SDS011;11310;51.528;21.204;2022-11-15T07:17:47;15.77;;;7.30;;
22282;SDS011;11310;51.528;21.204;2022-11-15T07:20:35;17.10;;;7.60;;
22282;SDS011;11310;51.528;21.204;2022-11-15T07:23:22;16.33;;;7.70;;
22282;SDS011;11310;51.528;21.204;2022-11-15T07:26:10;16.85;;;7.55;;
22282;SDS011;11310;51.528;21.204;2022-11-15T07:28:57;16.27;;;7.30;;
22282;SDS011;11310;51.528;21.204;2022-11-15T07:31:45;16.92;;;7.25;;
22282;SDS011;11310;51.528;21.204;2022-11-15T07:34:32;17.00;;;7.65;;
22282;SDS011;11310;51.528;21.204;2022-11-15T07:37:21;16.33;;;7.43;;
22282;SDS011;11310;51.528;21.204;2022-11-15T07:40:09;14.10;;;6.88;;
22282;SDS011;11310;51.528;21.204;2022-11-15T07:43:01;16.05;;;7.20;;
22282;SDS011;11310;51.528;21.204;2022-11-15T07:45:49;14.57;;;7.35;;
22282;SDS011;11310;51.528;21.204;2022-11-15T07:48:44;18.08;;;8.32;;
22282;SDS011;11310;51.528;21.204;2022-11-15T07:51:31;19.58;;;8.35;;
22282;SDS011;11310;51.528;21.204;2022-11-15T07:54:19;24.15;;;8.68;;
22282;SDS011;11310;51.528;21.204;2022-11-15T07:57:06;18.85;;;9.38;;
22282;SDS011;11310;51.528;21.204;2022-11-15T07:59:56;18.00;;;9.00;;
22282;SDS011;11310;51.528;21.204;2022-11-15T08:02:46;19.55;;;9.07;;
22282;SDS011;11310;51.528;21.204;2022-11-15T08:05:34;21.80;;;10.30;;
22282;SDS011;11310;51.528;21.204;2022-11-15T08:08:23;19.20;;;9.43;;
22282;SDS011;11310;51.528;21.204;2022-11-15T08:11:12;24.67;;;10.70;;
22282;SDS011;11310;51.528;21.204;2022-11-15T08:13:59;20.17;;;9.43;;
22282;SDS011;11310;51.528;21.204;2022-11-15T08:16:47;20.08;;;8.65;;
22282;SDS011;11310;51.528;21.204;2022-11-15T08:19:35;20.63;;;8.90;;
22282;SDS011;11310;51.528;21.204;2022-11-15T08:22:23;21.55;;;9.00;;
22282;SDS011;11310;51.528;21.204;2022-11-15T08:25:10;19.98;;;9.10;;
22282;SDS011;11310;51.528;21.204;2022-11-15T08:28:00;20.48;;;9.48;;
22282;SDS011;11310;51.528;21.204;2022-11-15T08:30:51;19.27;;;9.10;;
22282;SDS011;11310;51.528;21.204;2022-11-15T08:33:38;21.00;;;8.88;;
22282;SDS011;11310;51.528;21.204;2022-11-15T08:36:26;21.70;;;9.65;;
22282;SDS011;11310;51.528;21.204;2022-11-15T08:39:26;21.02;;;9.65;;
22282;SDS011;11310;51.528;21.204;2022-11-15T08:42:13;23.83;;;9.98;;
22282;SDS011;11310;51.528;21.204;2022-11-15T08:45:06;19.80;;;9.70;;
22282;SDS011;11310;51.528;21.204;2022-11-15T08:47:55;23.20;;;9.77;;
22282;SDS011;11310;51.528;21.204;2022-11-15T08:50:42;21.25;;;10.52;;
22282;SDS011;11310;51.528;21.204;2022-11-15T08:53:29;23.45;;;10.80;;
22282;SDS011;11310;51.528;21.204;2022-11-15T08:56:17;23.05;;;11.45;;
22282;SDS011;11310;51.528;21.204;2022-11-15T08:59:04;24.50;;;10.55;;
22282;SDS011;11310;51.528;21.204;2022-11-15T09:01:53;22.90;;;10.40;;
22282;SDS011;11310;51.528;21.204;2022-11-15T09:04:40;22.83;;;11.43;;
22282;SDS011;11310;51.528;21.204;2022-11-15T09:07:28;21.95;;;10.93;;
22282;SDS011;11310;51.528;21.204;2022-11-15T09:10:17;24.80;;;11.20;;
22282;SDS011;11310;51.528;21.204;2022-11-15T09:13:05;25.75;;;11.38;;
22282;SDS011;11310;51.528;21.204;2022-11-15T09:15:52;27.23;;;11.13;;
22282;SDS011;11310;51.528;21.204;2022-11-15T09:18:41;23.80;;;11.68;;
22282;SDS011;11310;51.528;21.204;2022-11-15T09:21:29;26.15;;;10.93;;
22282;SDS011;11310;51.528;21.204;2022-11-15T09:24:16;23.60;;;10.35;;
22282;SDS011;11310;51.528;21.204;2022-11-15T09:27:04;25.52;;;11.63;;
22282;SDS011;11310;51.528;21.204;2022-11-15T09:29:52;24.67;;;11.60;;
22282;SDS011;11310;51.528;21.204;2022-11-15T09:32:39;24.80;;;11.60;;
22282;SDS011;11310;51.528;21.204;2022-11-15T09:35:27;24.38;;;11.63;;
22282;SDS011;11310;51.528;21.204;2022-11-15T09:38:15;21.77;;;11.15;;
22282;SDS011;11310;51.528;21.204;2022-11-15T09:41:13;24.20;;;11.95;;
22282;SDS011;11310;51.528;21.204;2022-11-15T09:44:27;28.00;;;12.07;;
22282;SDS011;11310;51.528;21.204;2022-11-15T09:47:31;23.38;;;11.25;;
22282;SDS011;11310;51.528;21.204;2022-11-15T09:50:41;21.27;;;10.75;;
22282;SDS011;11310;51.528;21.204;2022-11-15T09:53:14;21.75;;;10.73;;
22282;SDS011;11310;51.528;21.204;2022-11-15T09:56:13;21.50;;;10.82;;
22282;SDS011;11310;51.528;21.204;2022-11-15T09:58:46;25.80;;;12.20;;
22282;SDS011;11310;51.528;21.204;2022-11-15T10:01:31;25.33;;;11.65;;
22282;SDS011;11310;51.528;21.204;2022-11-15T10:04:09;25.27;;;12.10;;
22282;SDS011;11310;51.528;21.204;2022-11-15T10:06:40;24.13;;;11.32;;
22282;SDS011;11310;51.528;21.204;2022-11-15T10:09:19;27.17;;;11.05;;
22282;SDS011;11310;51.528;21.204;2022-11-15T10:11:53;24.15;;;11.65;;
22282;SDS011;11310;51.528;21.204;2022-11-15T10:14:23;29.83;;;12.77;;
22282;SDS011;11310;51.528;21.204;2022-11-15T10:17:09;22.80;;;11.30;;
22282;SDS011;11310;51.528;21.204;2022-11-15T10:20:02;28.33;;;12.63;;
22282;SDS011;11310;51.528;21.204;2022-11-15T10:22:44;24.52;;;11.80;;
22282;SDS011;11310;51.528;21.204;2022-11-15T10:25:17;22.02;;;11.75;;
22282;SDS011;11310;51.528;21.204;2022-11-15T10:27:51;23.15;;;11.85;;
22282;SDS011;11310;51.528;21.204;2022-11-15T10:30:23;26.27;;;11.93;;
22282;SDS011;11310;51.528;21.204;2022-11-15T10:32:59;22.65;;;11.52;;
22282;SDS011;11310;51.528;21.204;2022-11-15T10:35:40;23.38;;;12.07;;
22282;SDS011;11310;51.528;21.204;2022-11-15T10:38:12;25.08;;;11.82;;
22282;SDS011;11310;51.528;21.204;2022-11-15T10:40:40;25.58;;;12.52;;
22282;SDS011;11310;51.528;21.204;2022-11-15T10:43:13;26.13;;;12.63;;
22282;SDS011;11310;51.528;21.204;2022-11-15T10:45:43;25.50;;;12.70;;
22282;SDS011;11310;51.528;21.204;2022-11-15T10:48:21;24.73;;;11.57;;
22282;SDS011;11310;51.528;21.204;2022-11-15T10:50:54;25.63;;;12.15;;
22282;SDS011;11310;51.528;21.204;2022-11-15T10:53:27;24.65;;;12.73;;
22282;SDS011;11310;51.528;21.204;2022-11-15T10:56:00;23.85;;;12.73;;
22282;SDS011;11310;51.528;21.204;2022-11-15T10:58:35;26.27;;;12.57;;
22282;SDS011;11310;51.528;21.204;2022-11-15T11:01:13;25.35;;;12.45;;
22282;SDS011;11310;51.528;21.204;2022-11-15T11:03:44;25.48;;;12.15;;
22282;SDS011;11310;51.528;21.204;2022-11-15T11:06:14;25.27;;;12.98;;
22282;SDS011;11310;51.528;21.204;2022-11-15T11:08:54;29.08;;;12.85;;
22282;SDS011;11310;51.528;21.204;2022-11-15T11:11:24;27.60;;;12.90;;
22282;SDS011;11310;51.528;21.204;2022-11-15T11:13:53;26.77;;;12.48;;
22282;SDS011;11310;51.528;21.204;2022-11-15T11:16:31;26.63;;;12.38;;
22282;SDS011;11310;51.528;21.204;2022-11-15T11:19:15;25.40;;;12.18;;
22282;SDS011;11310;51.528;21.204;2022-11-15T11:22:00;24.13;;;11.60;;
22282;SDS011;11310;51.528;21.204;2022-11-15T11:24:40;23.15;;;12.23;;
22282;SDS011;11310;51.528;21.204;2022-11-15T11:27:20;19.92;;;11.07;;
22282;SDS011;11310;51.528;21.204;2022-11-15T11:30:08;24.17;;;11.50;;
22282;SDS011;11310;51.528;21.204;2022-11-15T11:35:56;27.30;;;13.27;;
22282;SDS011;11310;51.528;21.204;2022-11-15T11:38:34;26.45;;;13.38;;
22282;SDS011;11310;51.528;21.204;2022-11-15T11:41:15;29.23;;;15.55;;
22282;SDS011;11310;51.528;21.204;2022-11-15T11:43:59;26.55;;;13.63;;
22282;SDS011;11310;51.528;21.204;2022-11-15T11:46:42;26.13;;;12.57;;
22282;SDS011;11310;51.528;21.204;2022-11-15T11:49:19;29.50;;;13.43;;
22282;SDS011;11310;51.528;21.204;2022-11-15T11:51:53;24.58;;;12.82;;
22282;SDS011;11310;51.528;21.204;2022-11-15T11:54:29;22.30;;;11.43;;
22282;SDS011;11310;51.528;21.204;2022-11-15T11:57:17;22.75;;;11.73;;
22282;SDS011;11310;51.528;21.204;2022-11-15T11:59:55;23.90;;;12.05;;
22282;SDS011;11310;51.528;21.204;2022-11-15T12:02:39;22.38;;;11.00;;
22282;SDS011;11310;51.528;21.204;2022-11-15T12:07:42;20.63;;;10.98;;
22282;SDS011;11310;51.528;21.204;2022-11-15T12:10:15;19.70;;;10.32;;
22282;SDS011;11310;51.528;21.204;2022-11-15T12:12:53;20.05;;;10.07;;
22282;SDS011;11310;51.528;21.204;2022-11-15T12:15:27;22.00;;;10.57;;
22282;SDS011;11310;51.528;21.204;2022-11-15T12:18:00;22.13;;;10.32;;
22282;SDS011;11310;51.528;21.204;2022-11-15T12:20:32;21.42;;;10.35;;
22282;SDS011;11310;51.528;21.204;2022-11-15T12:23:06;20.77;;;10.75;;
22282;SDS011;11310;51.528;21.204;2022-11-15T12:25:44;19.92;;;10.35;;
22282;SDS011;11310;51.528;21.204;2022-11-15T12:28:31;19.20;;;10.27;;
22282;SDS011;11310;51.528;21.204;2022-11-15T12:31:26;20.42;;;9.65;;
22282;SDS011;11310;51.528;21.204;2022-11-15T12:34:05;20.33;;;10.30;;
22282;SDS011;11310;51.528;21.204;2022-11-15T12:36:43;19.73;;;10.80;;
22282;SDS011;11310;51.528;21.204;2022-11-15T12:39:13;21.48;;;10.63;;
22282;SDS011;11310;51.528;21.204;2022-11-15T12:41:43;23.55;;;10.60;;
22282;SDS011;11310;51.528;21.204;2022-11-15T12:44:55;19.90;;;10.68;;
22282;SDS011;11310;51.528;21.204;2022-11-15T12:47:22;22.67;;;11.25;;
22282;SDS011;11310;51.528;21.204;2022-11-15T12:49:52;19.85;;;10.25;;
22282;SDS011;11310;51.528;21.204;2022-11-15T12:52:21;21.20;;;10.88;;
22282;SDS011;11310;51.528;21.204;2022-11-15T12:54:54;20.65;;;10.20;;
22282;SDS011;11310;51.528;21.204;2022-11-15T12:57:37;20.88;;;10.57;;
22282;SDS011;11310;51.528;21.204;2022-11-15T13:03:23;25.50;;;10.63;;
22282;SDS011;11310;51.528;21.204;2022-11-15T13:05:58;21.95;;;9.75;;
22282;SDS011;11310;51.528;21.204;2022-11-15T13:08:58;17.92;;;9.20;;
22282;SDS011;11310;51.528;21.204;2022-11-15T13:11:47;22.17;;;9.32;;
22282;SDS011;11310;51.528;21.204;2022-11-15T13:17:31;17.58;;;9.00;;
22282;SDS011;11310;51.528;21.204;2022-11-15T13:23:00;17.00;;;9.15;;
22282;SDS011;11310;51.528;21.204;2022-11-15T13:25:51;17.92;;;9.30;;
22282;SDS011;11310;51.528;21.204;2022-11-15T13:28:32;20.00;;;9.55;;
22282;SDS011;11310;51.528;21.204;2022-11-15T13:31:13;19.63;;;9.07;;
22282;SDS011;11310;51.528;21.204;2022-11-15T13:33:55;15.38;;;8.02;;
22282;SDS011;11310;51.528;21.204;2022-11-15T13:36:28;17.77;;;8.95;;
22282;SDS011;11310;51.528;21.204;2022-11-15T13:39:00;16.02;;;8.80;;
22282;SDS011;11310;51.528;21.204;2022-11-15T13:44:03;19.10;;;8.68;;
22282;SDS011;11310;51.528;21.204;2022-11-15T13:46:47;15.80;;;8.55;;
22282;SDS011;11310;51.528;21.204;2022-11-15T13:49:16;15.05;;;8.13;;
22282;SDS011;11310;51.528;21.204;2022-11-15T13:51:46;16.58;;;8.77;;
22282;SDS011;11310;51.528;21.204;2022-11-15T13:56:49;18.27;;;8.38;;
22282;SDS011;11310;51.528;21.204;2022-11-15T13:59:24;16.08;;;8.00;;
22282;SDS011;11310;51.528;21.204;2022-11-15T14:01:54;18.58;;;8.35;;
22282;SDS011;11310;51.528;21.204;2022-11-15T14:04:26;16.92;;;8.75;;
22282;SDS011;11310;51.528;21.204;2022-11-15T14:07:01;16.45;;;9.23;;
22282;SDS011;11310;51.528;21.204;2022-11-15T14:09:35;19.15;;;9.70;;
22282;SDS011;11310;51.528;21.204;2022-11-15T14:12:31;21.50;;;9.88;;
22282;SDS011;11310;51.528;21.204;2022-11-15T14:15:18;22.58;;;10.23;;
22282;SDS011;11310;51.528;21.204;2022-11-15T14:17:58;22.17;;;10.77;;
22282;SDS011;11310;51.528;21.204;2022-11-15T14:20:37;20.92;;;9.75;;
22282;SDS011;11310;51.528;21.204;2022-11-15T14:23:19;26.10;;;11.20;;
22282;SDS011;11310;51.528;21.204;2022-11-15T14:25:58;19.20;;;10.93;;
22282;SDS011;11310;51.528;21.204;2022-11-15T14:28:42;23.60;;;12.23;;
22282;SDS011;11310;51.528;21.204;2022-11-15T14:31:21;21.40;;;11.15;;
22282;SDS011;11310;51.528;21.204;2022-11-15T14:33:56;25.85;;;11.18;;
22282;SDS011;11310;51.528;21.204;2022-11-15T14:36:24;22.90;;;11.77;;
22282;SDS011;11310;51.528;21.204;2022-11-15T14:38:53;24.35;;;12.73;;
22282;SDS011;11310;51.528;21.204;2022-11-15T14:41:23;23.35;;;12.68;;
22282;SDS011;11310;51.528;21.204;2022-11-15T14:43:55;20.83;;;12.23;;
22282;SDS011;11310;51.528;21.204;2022-11-15T14:46:24;23.65;;;12.50;;
22282;SDS011;11310;51.528;21.204;2022-11-15T14:48:52;26.98;;;12.52;;
22282;SDS011;11310;51.528;21.204;2022-11-15T14:51:21;19.45;;;11.88;;
22282;SDS011;11310;51.528;21.204;2022-11-15T14:53:51;19.65;;;10.68;;
22282;SDS011;11310;51.528;21.204;2022-11-15T14:56:22;21.02;;;11.02;;
22282;SDS011;11310;51.528;21.204;2022-11-15T14:58:50;24.33;;;12.20;;
22282;SDS011;11310;51.528;21.204;2022-11-15T15:01:23;23.27;;;12.40;;
22282;SDS011;11310;51.528;21.204;2022-11-15T15:03:53;26.00;;;12.68;;
22282;SDS011;11310;51.528;21.204;2022-11-15T15:06:24;23.05;;;10.95;;
22282;SDS011;11310;51.528;21.204;2022-11-15T15:08:53;22.40;;;11.18;;
22282;SDS011;11310;51.528;21.204;2022-11-15T15:11:23;21.77;;;10.85;;
22282;SDS011;11310;51.528;21.204;2022-11-15T15:13:54;27.48;;;11.32;;
22282;SDS011;11310;51.528;21.204;2022-11-15T15:16:25;41.20;;;11.70;;
22282;SDS011;11310;51.528;21.204;2022-11-15T15:18:54;29.13;;;13.60;;
22282;SDS011;11310;51.528;21.204;2022-11-15T15:21:23;30.50;;;13.95;;
22282;SDS011;11310;51.528;21.204;2022-11-15T15:24:02;28.48;;;14.20;;
22282;SDS011;11310;51.528;21.204;2022-11-15T15:26:32;31.25;;;15.38;;
22282;SDS011;11310;51.528;21.204;2022-11-15T15:29:03;30.13;;;15.10;;
22282;SDS011;11310;51.528;21.204;2022-11-15T15:31:33;27.90;;;14.20;;
22282;SDS011;11310;51.528;21.204;2022-11-15T15:34:01;27.98;;;14.90;;
22282;SDS011;11310;51.528;21.204;2022-11-15T15:36:30;24.27;;;12.73;;
22282;SDS011;11310;51.528;21.204;2022-11-15T15:38:58;25.10;;;13.05;;
22282;SDS011;11310;51.528;21.204;2022-11-15T15:41:27;23.85;;;12.48;;
22282;SDS011;11310;51.528;21.204;2022-11-15T15:43:55;25.58;;;14.43;;
22282;SDS011;11310;51.528;21.204;2022-11-15T15:46:24;27.45;;;14.68;;
22282;SDS011;11310;51.528;21.204;2022-11-15T15:48:54;31.63;;;19.35;;
22282;SDS011;11310;51.528;21.204;2022-11-15T15:51:22;32.75;;;18.13;;
22282;SDS011;11310;51.528;21.204;2022-11-15T15:53:51;28.25;;;15.00;;
22282;SDS011;11310;51.528;21.204;2022-11-15T15:56:24;26.02;;;14.02;;
22282;SDS011;11310;51.528;21.204;2022-11-15T15:58:53;24.65;;;12.30;;
22282;SDS011;11310;51.528;21.204;2022-11-15T16:01:22;22.20;;;11.63;;
22282;SDS011;11310;51.528;21.204;2022-11-15T16:03:51;29.73;;;13.90;;
22282;SDS011;11310;51.528;21.204;2022-11-15T16:06:32;26.42;;;14.13;;
22282;SDS011;11310;51.528;21.204;2022-11-15T16:09:03;27.83;;;14.07;;
22282;SDS011;11310;51.528;21.204;2022-11-15T16:11:43;27.92;;;14.45;;
22282;SDS011;11310;51.528;21.204;2022-11-15T16:14:13;28.75;;;13.02;;
22282;SDS011;11310;51.528;21.204;2022-11-15T16:16:42;23.48;;;12.30;;
22282;SDS011;11310;51.528;21.204;2022-11-15T16:19:10;24.45;;;12.70;;
22282;SDS011;11310;51.528;21.204;2022-11-15T16:21:41;23.92;;;12.57;;